Panama City, FL

1:51 PM CDT on March 28, 2015 (GMT -0500)
Millville | | Change Station
CLOSE
Current Station
Personal Weather Station
Location: Panama City, FL
Elevation: 24 ft
Nearby Weather Stations

Elev 24 ft 30.15 °N, 85.63 °W | Updated 1 minute ago

Clear
Clear
63.5 °F
Feels Like 63.5 °F
N
2.0
Wind Variable Wind from North
Gusts 5.0 mph

Today
High -- | Low -- °F
--% Chance of Precip.
Yesterday
High -- | Low -- °F
Precip. -- in
6:37 AM 6:58 PM
Waxing Gibbous, 64% visible
Pressure 30.22 in
Visibility 10.0 miles
Clouds Clear
Dew Point 35 °F
Humidity 34%
Rainfall 0.00 in
Snow Depth Not available.
UV 11 out of 12
Pollen 10.00 out of 12
Air Quality Not available.
Flu Activity Not available.
METAR KPAM 281758Z AUTO 33008G17KT 10SM CLR 15/01 A3021 RMK AO2 SLP233 T01520006 10154 20072 58012 $

More Conditions Fewer Conditions

Pressure 30.22 in
Visibility 10.0 miles
Clouds Clear
Dew Point 35 °F
Humidity 34%
Rainfall 0.00 in
Snow Depth Not available.
UV 11 out of 12
Pollen 10.00 out of 12
Air Quality Not available.
Flu Activity Not available.
METAR KPAM 281758Z AUTO 33008G17KT 10SM CLR 15/01 A3021 RMK AO2 SLP233 T01520006 10154 20072 58012 $

More Conditions Fewer Conditions

10-Day Weather Forecast

Almanac

Astronomy

Mar. 28, 2015 Rise Set
Actual Time
Civil Twilight
Nautical Twilight
Astronomical Twilight
Moon
Length of Visible Light
Length of Day
Tomorrow will be .
, % of the Moon is Illuminated

Today's Extremes

State Highs State Lows

Community

WunderPhotos

Upload Photos

1,809,055 photos uploaded!

WunderBlogs® & News

Nearby

Air Quality

  Air Quality AQ Index Pollutant
Not available.

Snow Depth

Station Depth Elevation

Earthquake Activity

City Distance Mag. Time & Date
Minimum magnitude displayed is 2.5.

Coastal Water Temperatures

Place Temperature

Stations

Nearby Weather Stations

Station Location Temp. Windchill Dew Point Humidity Wind Precip. Elev Updated Type